sensor_id;sensor_type;location;lat;lon;timestamp;P1;durP1;ratioP1;P2;durP2;ratioP2
8066;SDS011;4076;48.076;9.118;2023-02-28T00:00:12;9.60;;;6.87;;
8066;SDS011;4076;48.076;9.118;2023-02-28T00:02:40;7.87;;;5.57;;
8066;SDS011;4076;48.076;9.118;2023-02-28T00:05:07;12.23;;;7.17;;
8066;SDS011;4076;48.076;9.118;2023-02-28T00:07:33;11.13;;;5.53;;
8066;SDS011;4076;48.076;9.118;2023-02-28T00:09:59;7.87;;;6.70;;
8066;SDS011;4076;48.076;9.118;2023-02-28T00:12:25;7.03;;;6.37;;
8066;SDS011;4076;48.076;9.118;2023-02-28T00:14:51;10.43;;;7.57;;
8066;SDS011;4076;48.076;9.118;2023-02-28T00:17:17;11.40;;;6.63;;
8066;SDS011;4076;48.076;9.118;2023-02-28T00:19:45;9.83;;;5.90;;
8066;SDS011;4076;48.076;9.118;2023-02-28T00:22:13;7.90;;;5.80;;
8066;SDS011;4076;48.076;9.118;2023-02-28T00:24:39;10.33;;;6.40;;
8066;SDS011;4076;48.076;9.118;2023-02-28T00:27:04;11.97;;;6.30;;
8066;SDS011;4076;48.076;9.118;2023-02-28T00:29:30;14.73;;;8.33;;
8066;SDS011;4076;48.076;9.118;2023-02-28T00:31:56;8.40;;;6.27;;
8066;SDS011;4076;48.076;9.118;2023-02-28T00:34:21;6.83;;;6.13;;
8066;SDS011;4076;48.076;9.118;2023-02-28T00:36:47;8.13;;;6.50;;
8066;SDS011;4076;48.076;9.118;2023-02-28T00:39:15;9.57;;;6.70;;
8066;SDS011;4076;48.076;9.118;2023-02-28T00:41:41;9.70;;;6.97;;
8066;SDS011;4076;48.076;9.118;2023-02-28T00:44:06;9.17;;;7.63;;
8066;SDS011;4076;48.076;9.118;2023-02-28T00:46:32;9.57;;;8.27;;
8066;SDS011;4076;48.076;9.118;2023-02-28T00:48:58;10.20;;;6.87;;
8066;SDS011;4076;48.076;9.118;2023-02-28T00:51:23;7.33;;;6.13;;
8066;SDS011;4076;48.076;9.118;2023-02-28T00:53:49;10.77;;;8.17;;
8066;SDS011;4076;48.076;9.118;2023-02-28T00:56:14;7.23;;;5.50;;
8066;SDS011;4076;48.076;9.118;2023-02-28T00:58:40;8.33;;;6.83;;
8066;SDS011;4076;48.076;9.118;2023-02-28T01:01:05;10.73;;;7.43;;
8066;SDS011;4076;48.076;9.118;2023-02-28T01:03:31;8.70;;;7.47;;
8066;SDS011;4076;48.076;9.118;2023-02-28T01:05:57;9.30;;;6.40;;
8066;SDS011;4076;48.076;9.118;2023-02-28T01:08:22;8.50;;;6.50;;
8066;SDS011;4076;48.076;9.118;2023-02-28T01:10:48;9.17;;;6.07;;
8066;SDS011;4076;48.076;9.118;2023-02-28T01:13:14;7.43;;;5.73;;
8066;SDS011;4076;48.076;9.118;2023-02-28T01:15:40;8.70;;;6.33;;
8066;SDS011;4076;48.076;9.118;2023-02-28T01:18:10;7.23;;;6.40;;
8066;SDS011;4076;48.076;9.118;2023-02-28T01:20:36;8.87;;;6.40;;
8066;SDS011;4076;48.076;9.118;2023-02-28T01:23:02;8.47;;;6.00;;
8066;SDS011;4076;48.076;9.118;2023-02-28T01:25:28;8.50;;;5.83;;
8066;SDS011;4076;48.076;9.118;2023-02-28T01:27:53;9.80;;;7.53;;
8066;SDS011;4076;48.076;9.118;2023-02-28T01:30:19;7.13;;;6.07;;
8066;SDS011;4076;48.076;9.118;2023-02-28T01:32:45;12.93;;;6.73;;
8066;SDS011;4076;48.076;9.118;2023-02-28T01:35:10;8.03;;;6.50;;
8066;SDS011;4076;48.076;9.118;2023-02-28T01:37:36;7.70;;;6.13;;
8066;SDS011;4076;48.076;9.118;2023-02-28T01:40:01;9.70;;;6.27;;
8066;SDS011;4076;48.076;9.118;2023-02-28T01:42:27;6.77;;;5.57;;
8066;SDS011;4076;48.076;9.118;2023-02-28T01:47:55;6.70;;;5.93;;
8066;SDS011;4076;48.076;9.118;2023-02-28T01:50:28;8.87;;;6.20;;
8066;SDS011;4076;48.076;9.118;2023-02-28T01:52:59;9.97;;;6.93;;
8066;SDS011;4076;48.076;9.118;2023-02-28T01:55:29;9.87;;;6.70;;
8066;SDS011;4076;48.076;9.118;2023-02-28T01:57:56;6.77;;;5.43;;
8066;SDS011;4076;48.076;9.118;2023-02-28T02:00:25;6.40;;;5.07;;
8066;SDS011;4076;48.076;9.118;2023-02-28T02:02:53;6.70;;;5.90;;
8066;SDS011;4076;48.076;9.118;2023-02-28T02:05:23;8.30;;;6.03;;
8066;SDS011;4076;48.076;9.118;2023-02-28T02:08:12;9.13;;;7.80;;
8066;SDS011;4076;48.076;9.118;2023-02-28T02:10:50;8.20;;;5.40;;
8066;SDS011;4076;48.076;9.118;2023-02-28T02:13:24;6.23;;;5.43;;
8066;SDS011;4076;48.076;9.118;2023-02-28T02:22:32;5.63;;;4.83;;
8066;SDS011;4076;48.076;9.118;2023-02-28T02:39:29;8.03;;;5.30;;
8066;SDS011;4076;48.076;9.118;2023-02-28T02:42:03;6.47;;;5.13;;
8066;SDS011;4076;48.076;9.118;2023-02-28T02:44:40;6.50;;;4.50;;
8066;SDS011;4076;48.076;9.118;2023-02-28T02:47:12;6.03;;;5.40;;
8066;SDS011;4076;48.076;9.118;2023-02-28T02:49:43;7.40;;;5.57;;
8066;SDS011;4076;48.076;9.118;2023-02-28T02:52:14;7.30;;;6.47;;
8066;SDS011;4076;48.076;9.118;2023-02-28T02:54:44;6.30;;;5.57;;
8066;SDS011;4076;48.076;9.118;2023-02-28T02:57:13;7.27;;;5.27;;
8066;SDS011;4076;48.076;9.118;2023-02-28T02:59:44;9.47;;;6.70;;
8066;SDS011;4076;48.076;9.118;2023-02-28T03:02:11;8.70;;;5.43;;
8066;SDS011;4076;48.076;9.118;2023-02-28T03:04:43;10.40;;;6.50;;
8066;SDS011;4076;48.076;9.118;2023-02-28T03:07:13;7.93;;;5.97;;
8066;SDS011;4076;48.076;9.118;2023-02-28T03:09:39;11.03;;;5.77;;
8066;SDS011;4076;48.076;9.118;2023-02-28T03:12:04;8.97;;;6.23;;
8066;SDS011;4076;48.076;9.118;2023-02-28T03:17:21;6.00;;;5.30;;
8066;SDS011;4076;48.076;9.118;2023-02-28T03:20:49;7.07;;;5.60;;
8066;SDS011;4076;48.076;9.118;2023-02-28T03:22:59;7.70;;;5.80;;
8066;SDS011;4076;48.076;9.118;2023-02-28T03:30:49;7.67;;;5.47;;
8066;SDS011;4076;48.076;9.118;2023-02-28T03:33:30;8.50;;;6.23;;
8066;SDS011;4076;48.076;9.118;2023-02-28T03:36:35;10.33;;;6.73;;
8066;SDS011;4076;48.076;9.118;2023-02-28T03:39:04;9.07;;;5.97;;
8066;SDS011;4076;48.076;9.118;2023-02-28T03:41:37;9.40;;;6.13;;
8066;SDS011;4076;48.076;9.118;2023-02-28T03:44:17;9.47;;;6.17;;
8066;SDS011;4076;48.076;9.118;2023-02-28T03:47:07;8.67;;;5.93;;
8066;SDS011;4076;48.076;9.118;2023-02-28T03:49:38;9.60;;;6.20;;
8066;SDS011;4076;48.076;9.118;2023-02-28T03:52:10;10.53;;;6.90;;
8066;SDS011;4076;48.076;9.118;2023-02-28T03:54:38;8.23;;;6.00;;
8066;SDS011;4076;48.076;9.118;2023-02-28T03:57:12;9.37;;;6.83;;
8066;SDS011;4076;48.076;9.118;2023-02-28T03:59:54;8.50;;;6.57;;
8066;SDS011;4076;48.076;9.118;2023-02-28T04:02:24;7.90;;;5.93;;
8066;SDS011;4076;48.076;9.118;2023-02-28T04:04:50;9.13;;;6.10;;
8066;SDS011;4076;48.076;9.118;2023-02-28T04:07:16;7.87;;;6.73;;
8066;SDS011;4076;48.076;9.118;2023-02-28T04:09:42;11.63;;;6.73;;
8066;SDS011;4076;48.076;9.118;2023-02-28T04:12:08;8.70;;;6.40;;
8066;SDS011;4076;48.076;9.118;2023-02-28T04:14:33;8.93;;;7.27;;
8066;SDS011;4076;48.076;9.118;2023-02-28T04:16:59;12.27;;;6.03;;
8066;SDS011;4076;48.076;9.118;2023-02-28T04:19:24;9.50;;;6.87;;
8066;SDS011;4076;48.076;9.118;2023-02-28T04:21:51;7.60;;;5.70;;
8066;SDS011;4076;48.076;9.118;2023-02-28T04:24:19;10.37;;;5.83;;
8066;SDS011;4076;48.076;9.118;2023-02-28T04:26:50;9.93;;;7.10;;
8066;SDS011;4076;48.076;9.118;2023-02-28T04:29:20;8.27;;;6.97;;
8066;SDS011;4076;48.076;9.118;2023-02-28T04:31:47;8.53;;;6.60;;
8066;SDS011;4076;48.076;9.118;2023-02-28T04:34:13;7.37;;;5.30;;
8066;SDS011;4076;48.076;9.118;2023-02-28T04:36:38;9.57;;;7.10;;
8066;SDS011;4076;48.076;9.118;2023-02-28T04:39:04;7.33;;;5.70;;
8066;SDS011;4076;48.076;9.118;2023-02-28T04:41:29;10.30;;;7.10;;
8066;SDS011;4076;48.076;9.118;2023-02-28T04:43:55;9.07;;;6.67;;
8066;SDS011;4076;48.076;9.118;2023-02-28T04:46:21;8.00;;;5.83;;
8066;SDS011;4076;48.076;9.118;2023-02-28T04:48:48;10.73;;;6.63;;
8066;SDS011;4076;48.076;9.118;2023-02-28T04:51:14;10.77;;;7.13;;
8066;SDS011;4076;48.076;9.118;2023-02-28T04:53:41;6.00;;;5.40;;
8066;SDS011;4076;48.076;9.118;2023-02-28T04:56:07;11.80;;;7.40;;
8066;SDS011;4076;48.076;9.118;2023-02-28T04:58:36;8.90;;;6.27;;
8066;SDS011;4076;48.076;9.118;2023-02-28T05:01:03;9.63;;;7.00;;
8066;SDS011;4076;48.076;9.118;2023-02-28T05:03:30;10.37;;;7.40;;
8066;SDS011;4076;48.076;9.118;2023-02-28T05:05:55;8.37;;;6.83;;
8066;SDS011;4076;48.076;9.118;2023-02-28T05:08:21;8.50;;;6.47;;
8066;SDS011;4076;48.076;9.118;2023-02-28T05:10:46;7.83;;;6.83;;
8066;SDS011;4076;48.076;9.118;2023-02-28T05:13:12;9.27;;;6.23;;
8066;SDS011;4076;48.076;9.118;2023-02-28T05:15:37;8.83;;;6.00;;
8066;SDS011;4076;48.076;9.118;2023-02-28T05:18:03;9.00;;;7.57;;
8066;SDS011;4076;48.076;9.118;2023-02-28T05:20:29;12.00;;;7.27;;
8066;SDS011;4076;48.076;9.118;2023-02-28T05:22:54;7.70;;;6.40;;
8066;SDS011;4076;48.076;9.118;2023-02-28T05:25:21;10.17;;;6.90;;
8066;SDS011;4076;48.076;9.118;2023-02-28T05:27:47;8.33;;;6.40;;
8066;SDS011;4076;48.076;9.118;2023-02-28T05:30:13;10.90;;;6.70;;
8066;SDS011;4076;48.076;9.118;2023-02-28T05:32:39;10.87;;;8.60;;
8066;SDS011;4076;48.076;9.118;2023-02-28T05:35:08;10.27;;;7.10;;
8066;SDS011;4076;48.076;9.118;2023-02-28T05:37:35;11.90;;;7.30;;
8066;SDS011;4076;48.076;9.118;2023-02-28T05:40:01;8.83;;;7.40;;
8066;SDS011;4076;48.076;9.118;2023-02-28T05:42:30;11.60;;;6.50;;
8066;SDS011;4076;48.076;9.118;2023-02-28T05:44:56;9.33;;;6.67;;
8066;SDS011;4076;48.076;9.118;2023-02-28T05:47:22;13.80;;;7.43;;
8066;SDS011;4076;48.076;9.118;2023-02-28T05:49:47;13.20;;;6.40;;
8066;SDS011;4076;48.076;9.118;2023-02-28T05:52:13;11.03;;;6.80;;
8066;SDS011;4076;48.076;9.118;2023-02-28T05:54:38;10.93;;;7.20;;
8066;SDS011;4076;48.076;9.118;2023-02-28T05:57:04;8.80;;;6.60;;
8066;SDS011;4076;48.076;9.118;2023-02-28T05:59:29;9.30;;;7.90;;
8066;SDS011;4076;48.076;9.118;2023-02-28T06:01:55;10.03;;;7.20;;
8066;SDS011;4076;48.076;9.118;2023-02-28T06:04:20;9.17;;;6.70;;
8066;SDS011;4076;48.076;9.118;2023-02-28T06:06:46;13.50;;;9.20;;
8066;SDS011;4076;48.076;9.118;2023-02-28T06:09:13;9.90;;;6.60;;
8066;SDS011;4076;48.076;9.118;2023-02-28T06:11:40;9.47;;;7.57;;
8066;SDS011;4076;48.076;9.118;2023-02-28T06:14:06;11.53;;;7.03;;
8066;SDS011;4076;48.076;9.118;2023-02-28T06:16:33;10.20;;;6.63;;
8066;SDS011;4076;48.076;9.118;2023-02-28T06:19:02;10.00;;;6.63;;
8066;SDS011;4076;48.076;9.118;2023-02-28T06:21:28;12.63;;;8.20;;
8066;SDS011;4076;48.076;9.118;2023-02-28T06:23:55;11.33;;;7.83;;
8066;SDS011;4076;48.076;9.118;2023-02-28T06:26:22;19.53;;;10.43;;
8066;SDS011;4076;48.076;9.118;2023-02-28T06:28:48;13.33;;;9.43;;
8066;SDS011;4076;48.076;9.118;2023-02-28T06:31:14;12.27;;;7.50;;
8066;SDS011;4076;48.076;9.118;2023-02-28T06:33:42;11.83;;;8.40;;
8066;SDS011;4076;48.076;9.118;2023-02-28T06:36:10;13.10;;;10.07;;
8066;SDS011;4076;48.076;9.118;2023-02-28T06:38:37;15.50;;;9.47;;
8066;SDS011;4076;48.076;9.118;2023-02-28T06:41:04;17.67;;;11.43;;
8066;SDS011;4076;48.076;9.118;2023-02-28T06:43:31;18.13;;;13.73;;
8066;SDS011;4076;48.076;9.118;2023-02-28T06:45:59;12.63;;;8.27;;
8066;SDS011;4076;48.076;9.118;2023-02-28T06:48:27;15.10;;;11.43;;
8066;SDS011;4076;48.076;9.118;2023-02-28T06:51:00;18.83;;;12.20;;
8066;SDS011;4076;48.076;9.118;2023-02-28T06:53:33;16.20;;;9.73;;
8066;SDS011;4076;48.076;9.118;2023-02-28T06:55:59;13.97;;;8.17;;
8066;SDS011;4076;48.076;9.118;2023-02-28T06:58:28;12.80;;;8.40;;
8066;SDS011;4076;48.076;9.118;2023-02-28T07:00:54;12.50;;;7.90;;
8066;SDS011;4076;48.076;9.118;2023-02-28T07:03:19;11.37;;;7.73;;
8066;SDS011;4076;48.076;9.118;2023-02-28T07:05:45;13.40;;;7.77;;
8066;SDS011;4076;48.076;9.118;2023-02-28T07:08:10;43.13;;;21.77;;
8066;SDS011;4076;48.076;9.118;2023-02-28T07:10:37;52.03;;;27.43;;
8066;SDS011;4076;48.076;9.118;2023-02-28T07:13:04;30.17;;;17.17;;
8066;SDS011;4076;48.076;9.118;2023-02-28T07:15:30;20.77;;;13.83;;
8066;SDS011;4076;48.076;9.118;2023-02-28T07:17:56;34.90;;;19.63;;
8066;SDS011;4076;48.076;9.118;2023-02-28T07:20:21;56.90;;;32.90;;
8066;SDS011;4076;48.076;9.118;2023-02-28T07:22:48;69.73;;;33.47;;
8066;SDS011;4076;48.076;9.118;2023-02-28T07:25:20;35.43;;;18.20;;
8066;SDS011;4076;48.076;9.118;2023-02-28T07:27:46;33.00;;;20.33;;
8066;SDS011;4076;48.076;9.118;2023-02-28T07:30:12;18.20;;;12.50;;
8066;SDS011;4076;48.076;9.118;2023-02-28T07:32:37;27.27;;;17.90;;
8066;SDS011;4076;48.076;9.118;2023-02-28T07:35:03;17.40;;;10.77;;
8066;SDS011;4076;48.076;9.118;2023-02-28T07:37:29;14.60;;;9.33;;
8066;SDS011;4076;48.076;9.118;2023-02-28T07:39:56;27.33;;;16.70;;
8066;SDS011;4076;48.076;9.118;2023-02-28T07:42:22;18.10;;;13.90;;
8066;SDS011;4076;48.076;9.118;2023-02-28T07:44:48;22.63;;;14.10;;
8066;SDS011;4076;48.076;9.118;2023-02-28T07:47:13;20.03;;;14.00;;
8066;SDS011;4076;48.076;9.118;2023-02-28T07:49:39;17.87;;;12.73;;
8066;SDS011;4076;48.076;9.118;2023-02-28T07:52:05;21.63;;;14.70;;
8066;SDS011;4076;48.076;9.118;2023-02-28T07:54:32;19.83;;;11.63;;
8066;SDS011;4076;48.076;9.118;2023-02-28T07:56:58;16.40;;;10.07;;
8066;SDS011;4076;48.076;9.118;2023-02-28T07:59:24;16.00;;;10.30;;
8066;SDS011;4076;48.076;9.118;2023-02-28T08:01:49;15.43;;;9.73;;
8066;SDS011;4076;48.076;9.118;2023-02-28T08:04:16;21.70;;;13.63;;
8066;SDS011;4076;48.076;9.118;2023-02-28T08:06:42;18.77;;;14.53;;
8066;SDS011;4076;48.076;9.118;2023-02-28T08:09:08;15.07;;;10.87;;
8066;SDS011;4076;48.076;9.118;2023-02-28T08:11:34;20.10;;;15.80;;
8066;SDS011;4076;48.076;9.118;2023-02-28T08:13:59;19.87;;;15.13;;
8066;SDS011;4076;48.076;9.118;2023-02-28T08:16:25;18.90;;;13.43;;
8066;SDS011;4076;48.076;9.118;2023-02-28T08:18:51;15.27;;;11.00;;
8066;SDS011;4076;48.076;9.118;2023-02-28T08:21:18;21.67;;;17.13;;
8066;SDS011;4076;48.076;9.118;2023-02-28T08:23:45;21.17;;;16.10;;
8066;SDS011;4076;48.076;9.118;2023-02-28T08:26:12;11.47;;;9.10;;
8066;SDS011;4076;48.076;9.118;2023-02-28T08:28:38;21.17;;;17.53;;
8066;SDS011;4076;48.076;9.118;2023-02-28T08:31:08;18.80;;;13.00;;
8066;SDS011;4076;48.076;9.118;2023-02-28T08:33:35;14.57;;;12.70;;
8066;SDS011;4076;48.076;9.118;2023-02-28T08:36:01;17.47;;;13.00;;
8066;SDS011;4076;48.076;9.118;2023-02-28T08:38:26;20.47;;;12.77;;
8066;SDS011;4076;48.076;9.118;2023-02-28T08:40:59;15.67;;;11.20;;
8066;SDS011;4076;48.076;9.118;2023-02-28T08:43:26;16.23;;;8.00;;
8066;SDS011;4076;48.076;9.118;2023-02-28T08:45:52;17.07;;;9.60;;
8066;SDS011;4076;48.076;9.118;2023-02-28T08:48:18;17.10;;;10.10;;
8066;SDS011;4076;48.076;9.118;2023-02-28T08:50:43;15.07;;;10.60;;
8066;SDS011;4076;48.076;9.118;2023-02-28T08:53:09;25.30;;;16.03;;
8066;SDS011;4076;48.076;9.118;2023-02-28T08:55:35;26.40;;;15.83;;
8066;SDS011;4076;48.076;9.118;2023-02-28T08:58:00;18.33;;;12.53;;
8066;SDS011;4076;48.076;9.118;2023-02-28T09:00:26;16.70;;;12.10;;
8066;SDS011;4076;48.076;9.118;2023-02-28T09:02:52;21.93;;;13.93;;
8066;SDS011;4076;48.076;9.118;2023-02-28T09:05:17;15.90;;;10.83;;
8066;SDS011;4076;48.076;9.118;2023-02-28T09:07:43;16.87;;;9.97;;
8066;SDS011;4076;48.076;9.118;2023-02-28T09:10:09;20.77;;;11.33;;
8066;SDS011;4076;48.076;9.118;2023-02-28T09:12:35;13.53;;;9.70;;
8066;SDS011;4076;48.076;9.118;2023-02-28T09:15:01;13.17;;;9.57;;
8066;SDS011;4076;48.076;9.118;2023-02-28T09:17:27;12.43;;;8.93;;
8066;SDS011;4076;48.076;9.118;2023-02-28T09:19:53;14.90;;;9.37;;
8066;SDS011;4076;48.076;9.118;2023-02-28T09:22:18;16.10;;;10.10;;
8066;SDS011;4076;48.076;9.118;2023-02-28T09:24:44;13.27;;;9.70;;
8066;SDS011;4076;48.076;9.118;2023-02-28T09:27:09;16.00;;;10.57;;
8066;SDS011;4076;48.076;9.118;2023-02-28T09:29:35;12.73;;;9.73;;
8066;SDS011;4076;48.076;9.118;2023-02-28T09:32:01;11.33;;;9.53;;
8066;SDS011;4076;48.076;9.118;2023-02-28T09:34:27;15.53;;;10.10;;
8066;SDS011;4076;48.076;9.118;2023-02-28T09:36:53;11.37;;;8.40;;
8066;SDS011;4076;48.076;9.118;2023-02-28T09:39:20;18.50;;;10.80;;
8066;SDS011;4076;48.076;9.118;2023-02-28T09:41:47;14.30;;;9.93;;
8066;SDS011;4076;48.076;9.118;2023-02-28T09:44:27;18.87;;;10.83;;
8066;SDS011;4076;48.076;9.118;2023-02-28T09:47:10;17.00;;;10.67;;
8066;SDS011;4076;48.076;9.118;2023-02-28T09:49:44;15.50;;;11.10;;
8066;SDS011;4076;48.076;9.118;2023-02-28T09:52:14;15.73;;;10.53;;
8066;SDS011;4076;48.076;9.118;2023-02-28T09:54:44;12.27;;;9.77;;
8066;SDS011;4076;48.076;9.118;2023-02-28T09:57:30;19.00;;;12.67;;
8066;SDS011;4076;48.076;9.118;2023-02-28T10:05:50;13.23;;;11.27;;
8066;SDS011;4076;48.076;9.118;2023-02-28T10:08:29;15.90;;;11.70;;
8066;SDS011;4076;48.076;9.118;2023-02-28T10:11:00;19.80;;;14.23;;
8066;SDS011;4076;48.076;9.118;2023-02-28T10:16:50;25.00;;;16.30;;
8066;SDS011;4076;48.076;9.118;2023-02-28T10:19:15;23.73;;;15.57;;
8066;SDS011;4076;48.076;9.118;2023-02-28T10:21:49;18.00;;;13.53;;
8066;SDS011;4076;48.076;9.118;2023-02-28T10:24:39;20.47;;;14.20;;
8066;SDS011;4076;48.076;9.118;2023-02-28T10:27:15;22.37;;;13.47;;
8066;SDS011;4076;48.076;9.118;2023-02-28T10:29:43;14.43;;;10.20;;
8066;SDS011;4076;48.076;9.118;2023-02-28T10:32:11;18.10;;;12.17;;
8066;SDS011;4076;48.076;9.118;2023-02-28T10:34:40;15.30;;;11.70;;
8066;SDS011;4076;48.076;9.118;2023-02-28T10:37:06;16.73;;;10.80;;
8066;SDS011;4076;48.076;9.118;2023-02-28T10:42:04;23.27;;;13.83;;
8066;SDS011;4076;48.076;9.118;2023-02-28T10:44:42;15.53;;;10.60;;
8066;SDS011;4076;48.076;9.118;2023-02-28T10:47:13;20.90;;;15.07;;
8066;SDS011;4076;48.076;9.118;2023-02-28T10:49:45;14.37;;;12.37;;
8066;SDS011;4076;48.076;9.118;2023-02-28T10:52:13;14.60;;;10.30;;
8066;SDS011;4076;48.076;9.118;2023-02-28T10:54:39;18.03;;;13.53;;
8066;SDS011;4076;48.076;9.118;2023-02-28T10:57:24;15.03;;;12.17;;
8066;SDS011;4076;48.076;9.118;2023-02-28T10:59:52;20.30;;;12.00;;
8066;SDS011;4076;48.076;9.118;2023-02-28T11:02:38;61.67;;;31.83;;
8066;SDS011;4076;48.076;9.118;2023-02-28T11:05:27;22.93;;;14.30;;
8066;SDS011;4076;48.076;9.118;2023-02-28T11:08:10;23.30;;;13.07;;
8066;SDS011;4076;48.076;9.118;2023-02-28T11:10:39;15.60;;;13.20;;
8066;SDS011;4076;48.076;9.118;2023-02-28T11:13:13;16.97;;;12.27;;
8066;SDS011;4076;48.076;9.118;2023-02-28T11:15:45;21.20;;;14.57;;
8066;SDS011;4076;48.076;9.118;2023-02-28T11:18:20;17.20;;;11.63;;
8066;SDS011;4076;48.076;9.118;2023-02-28T11:20:49;15.57;;;10.57;;
8066;SDS011;4076;48.076;9.118;2023-02-28T11:23:17;13.87;;;10.80;;
8066;SDS011;4076;48.076;9.118;2023-02-28T11:25:49;17.97;;;11.27;;
8066;SDS011;4076;48.076;9.118;2023-02-28T11:28:35;18.97;;;14.83;;
8066;SDS011;4076;48.076;9.118;2023-02-28T11:31:15;17.20;;;11.00;;
8066;SDS011;4076;48.076;9.118;2023-02-28T11:39:15;19.80;;;12.97;;
8066;SDS011;4076;48.076;9.118;2023-02-28T11:47:38;16.80;;;11.33;;
8066;SDS011;4076;48.076;9.118;2023-02-28T11:50:12;17.67;;;13.20;;
8066;SDS011;4076;48.076;9.118;2023-02-28T11:52:51;19.90;;;11.87;;
8066;SDS011;4076;48.076;9.118;2023-02-28T12:00:31;18.47;;;14.50;;
8066;SDS011;4076;48.076;9.118;2023-02-28T12:03:04;18.90;;;14.60;;
8066;SDS011;4076;48.076;9.118;2023-02-28T12:05:46;19.17;;;14.03;;
8066;SDS011;4076;48.076;9.118;2023-02-28T12:16:08;21.57;;;17.87;;
8066;SDS011;4076;48.076;9.118;2023-02-28T12:19:00;17.23;;;12.47;;
8066;SDS011;4076;48.076;9.118;2023-02-28T12:21:47;14.67;;;12.77;;
8066;SDS011;4076;48.076;9.118;2023-02-28T12:24:36;15.50;;;13.17;;
8066;SDS011;4076;48.076;9.118;2023-02-28T12:27:17;19.00;;;13.50;;
8066;SDS011;4076;48.076;9.118;2023-02-28T12:29:50;17.73;;;14.57;;
8066;SDS011;4076;48.076;9.118;2023-02-28T12:32:26;17.57;;;12.27;;
8066;SDS011;4076;48.076;9.118;2023-02-28T12:41:14;19.50;;;15.00;;
8066;SDS011;4076;48.076;9.118;2023-02-28T12:43:38;18.53;;;13.20;;
8066;SDS011;4076;48.076;9.118;2023-02-28T12:48:53;17.60;;;12.53;;
8066;SDS011;4076;48.076;9.118;2023-02-28T12:51:21;20.07;;;13.60;;
8066;SDS011;4076;48.076;9.118;2023-02-28T12:54:04;17.50;;;12.70;;
8066;SDS011;4076;48.076;9.118;2023-02-28T12:56:52;15.53;;;13.13;;
8066;SDS011;4076;48.076;9.118;2023-02-28T13:05:19;19.00;;;11.77;;
8066;SDS011;4076;48.076;9.118;2023-02-28T13:10:49;16.30;;;12.30;;
8066;SDS011;4076;48.076;9.118;2023-02-28T13:13:28;14.53;;;11.90;;
8066;SDS011;4076;48.076;9.118;2023-02-28T13:18:37;21.67;;;12.93;;
8066;SDS011;4076;48.076;9.118;2023-02-28T13:21:07;18.40;;;12.00;;
8066;SDS011;4076;48.076;9.118;2023-02-28T13:23:56;17.00;;;13.07;;
8066;SDS011;4076;48.076;9.118;2023-02-28T13:34:30;18.97;;;13.17;;
8066;SDS011;4076;48.076;9.118;2023-02-28T13:39:48;14.90;;;12.17;;
8066;SDS011;4076;48.076;9.118;2023-02-28T13:50:14;17.30;;;13.30;;
8066;SDS011;4076;48.076;9.118;2023-02-28T13:58:22;20.87;;;13.17;;
8066;SDS011;4076;48.076;9.118;2023-02-28T14:01:16;18.77;;;12.40;;
8066;SDS011;4076;48.076;9.118;2023-02-28T14:04:01;15.03;;;10.70;;
8066;SDS011;4076;48.076;9.118;2023-02-28T14:06:48;15.50;;;12.17;;
8066;SDS011;4076;48.076;9.118;2023-02-28T14:09:25;16.90;;;13.17;;
8066;SDS011;4076;48.076;9.118;2023-02-28T14:11:57;16.80;;;12.30;;
8066;SDS011;4076;48.076;9.118;2023-02-28T14:15:01;16.77;;;12.00;;
8066;SDS011;4076;48.076;9.118;2023-02-28T14:17:30;18.47;;;12.30;;
8066;SDS011;4076;48.076;9.118;2023-02-28T14:19:56;21.27;;;12.80;;
8066;SDS011;4076;48.076;9.118;2023-02-28T14:25:30;18.80;;;12.00;;
8066;SDS011;4076;48.076;9.118;2023-02-28T14:28:23;13.90;;;11.67;;
8066;SDS011;4076;48.076;9.118;2023-02-28T14:33:57;17.00;;;12.30;;
8066;SDS011;4076;48.076;9.118;2023-02-28T14:36:32;19.20;;;12.20;;
8066;SDS011;4076;48.076;9.118;2023-02-28T14:39:22;19.20;;;14.47;;
8066;SDS011;4076;48.076;9.118;2023-02-28T14:41:47;18.90;;;12.70;;
8066;SDS011;4076;48.076;9.118;2023-02-28T14:46:52;17.27;;;13.17;;
8066;SDS011;4076;48.076;9.118;2023-02-28T14:49:21;20.00;;;13.17;;
8066;SDS011;4076;48.076;9.118;2023-02-28T14:52:21;19.30;;;11.73;;
8066;SDS011;4076;48.076;9.118;2023-02-28T14:55:29;17.40;;;13.70;;
8066;SDS011;4076;48.076;9.118;2023-02-28T14:57:50;16.93;;;14.00;;
8066;SDS011;4076;48.076;9.118;2023-02-28T15:00:25;19.07;;;15.37;;
8066;SDS011;4076;48.076;9.118;2023-02-28T15:02:52;15.13;;;13.53;;
8066;SDS011;4076;48.076;9.118;2023-02-28T15:10:30;16.87;;;12.77;;
8066;SDS011;4076;48.076;9.118;2023-02-28T15:12:57;16.10;;;12.70;;
8066;SDS011;4076;48.076;9.118;2023-02-28T15:15:26;15.77;;;11.90;;
8066;SDS011;4076;48.076;9.118;2023-02-28T15:18:04;21.47;;;13.50;;
8066;SDS011;4076;48.076;9.118;2023-02-28T15:20:32;16.53;;;13.70;;
8066;SDS011;4076;48.076;9.118;2023-02-28T15:23:00;18.40;;;15.53;;
8066;SDS011;4076;48.076;9.118;2023-02-28T15:25:26;19.53;;;15.33;;
8066;SDS011;4076;48.076;9.118;2023-02-28T15:27:54;17.60;;;12.83;;
8066;SDS011;4076;48.076;9.118;2023-02-28T15:30:22;18.03;;;13.67;;
8066;SDS011;4076;48.076;9.118;2023-02-28T15:33:17;21.60;;;14.30;;
8066;SDS011;4076;48.076;9.118;2023-02-28T15:35:43;17.60;;;14.17;;
8066;SDS011;4076;48.076;9.118;2023-02-28T15:40:46;14.70;;;12.17;;
8066;SDS011;4076;48.076;9.118;2023-02-28T15:43:34;16.93;;;11.53;;
8066;SDS011;4076;48.076;9.118;2023-02-28T15:48:34;15.20;;;11.40;;
8066;SDS011;4076;48.076;9.118;2023-02-28T15:51:09;17.43;;;11.47;;
8066;SDS011;4076;48.076;9.118;2023-02-28T15:53:40;17.83;;;12.97;;
8066;SDS011;4076;48.076;9.118;2023-02-28T15:56:17;19.73;;;14.57;;
8066;SDS011;4076;48.076;9.118;2023-02-28T15:58:44;17.63;;;13.60;;
8066;SDS011;4076;48.076;9.118;2023-02-28T16:01:43;14.30;;;11.20;;
8066;SDS011;4076;48.076;9.118;2023-02-28T16:04:06;18.23;;;13.63;;
8066;SDS011;4076;48.076;9.118;2023-02-28T16:07:01;18.60;;;11.10;;
8066;SDS011;4076;48.076;9.118;2023-02-28T16:09:25;20.17;;;13.83;;
8066;SDS011;4076;48.076;9.118;2023-02-28T16:11:52;20.00;;;16.20;;
8066;SDS011;4076;48.076;9.118;2023-02-28T16:14:23;19.47;;;14.10;;
8066;SDS011;4076;48.076;9.118;2023-02-28T16:16:53;15.70;;;11.50;;
8066;SDS011;4076;48.076;9.118;2023-02-28T16:19:20;13.23;;;11.27;;
8066;SDS011;4076;48.076;9.118;2023-02-28T16:21:45;18.00;;;13.60;;
8066;SDS011;4076;48.076;9.118;2023-02-28T16:24:13;20.90;;;14.63;;
8066;SDS011;4076;48.076;9.118;2023-02-28T16:26:39;20.23;;;12.80;;
8066;SDS011;4076;48.076;9.118;2023-02-28T16:29:06;20.10;;;11.87;;
8066;SDS011;4076;48.076;9.118;2023-02-28T16:31:33;20.70;;;12.30;;
8066;SDS011;4076;48.076;9.118;2023-02-28T16:34:01;21.80;;;13.17;;
8066;SDS011;4076;48.076;9.118;2023-02-28T16:36:28;21.00;;;13.60;;
8066;SDS011;4076;48.076;9.118;2023-02-28T16:38:54;21.07;;;14.93;;
8066;SDS011;4076;48.076;9.118;2023-02-28T16:41:21;19.47;;;11.50;;
8066;SDS011;4076;48.076;9.118;2023-02-28T16:43:50;17.97;;;12.00;;
8066;SDS011;4076;48.076;9.118;2023-02-28T16:46:18;18.33;;;14.73;;
8066;SDS011;4076;48.076;9.118;2023-02-28T16:48:45;16.30;;;12.13;;
8066;SDS011;4076;48.076;9.118;2023-02-28T16:51:15;18.20;;;11.20;;
8066;SDS011;4076;48.076;9.118;2023-02-28T16:53:41;17.20;;;11.93;;
8066;SDS011;4076;48.076;9.118;2023-02-28T16:56:16;17.97;;;14.30;;
8066;SDS011;4076;48.076;9.118;2023-02-28T16:58:43;14.63;;;11.80;;
8066;SDS011;4076;48.076;9.118;2023-02-28T17:01:10;15.57;;;12.10;;
8066;SDS011;4076;48.076;9.118;2023-02-28T17:03:35;21.63;;;14.93;;
8066;SDS011;4076;48.076;9.118;2023-02-28T17:06:01;22.50;;;13.80;;
8066;SDS011;4076;48.076;9.118;2023-02-28T17:08:27;30.60;;;21.50;;
8066;SDS011;4076;48.076;9.118;2023-02-28T17:10:54;33.33;;;19.50;;
8066;SDS011;4076;48.076;9.118;2023-02-28T17:13:19;22.73;;;17.00;;
8066;SDS011;4076;48.076;9.118;2023-02-28T17:15:45;34.63;;;23.53;;
8066;SDS011;4076;48.076;9.118;2023-02-28T17:18:13;35.73;;;26.23;;
8066;SDS011;4076;48.076;9.118;2023-02-28T17:20:41;32.20;;;22.00;;
8066;SDS011;4076;48.076;9.118;2023-02-28T17:23:07;37.00;;;28.37;;
8066;SDS011;4076;48.076;9.118;2023-02-28T17:25:33;33.17;;;23.27;;